sensor_id;sensor_type;location;lat;lon;timestamp;pressure;altitude;pressure_sealevel;temperature;humidity
60240;BME280;46102;39.012;-7.064;2023-02-16T00:00:52;99454.00;;;10.94;57.03
60240;BME280;46102;39.012;-7.064;2023-02-16T00:02:53;99458.72;;;10.89;57.43
60240;BME280;46102;39.012;-7.064;2023-02-16T00:04:54;99460.13;;;10.86;57.46
60240;BME280;46102;39.012;-7.064;2023-02-16T00:06:55;99458.13;;;10.73;57.69
60240;BME280;46102;39.012;-7.064;2023-02-16T00:08:56;99452.88;;;10.76;57.67
60240;BME280;46102;39.012;-7.064;2023-02-16T00:10:57;99449.09;;;10.72;57.79
60240;BME280;46102;39.012;-7.064;2023-02-16T00:13:26;99451.53;;;10.74;57.53
60240;BME280;46102;39.012;-7.064;2023-02-16T00:15:46;99449.91;;;10.73;57.50
60240;BME280;46102;39.012;-7.064;2023-02-16T00:17:47;99453.47;;;10.73;57.37
60240;BME280;46102;39.012;-7.064;2023-02-16T00:19:48;99456.03;;;10.65;57.86
60240;BME280;46102;39.012;-7.064;2023-02-16T00:21:50;99453.63;;;10.63;57.99
60240;BME280;46102;39.012;-7.064;2023-02-16T00:23:51;99450.03;;;10.62;57.99
60240;BME280;46102;39.012;-7.064;2023-02-16T00:25:52;99448.34;;;10.67;58.05
60240;BME280;46102;39.012;-7.064;2023-02-16T00:27:53;99450.63;;;10.59;58.08
60240;BME280;46102;39.012;-7.064;2023-02-16T00:29:54;99451.28;;;10.51;58.41
60240;BME280;46102;39.012;-7.064;2023-02-16T00:31:56;99451.00;;;10.53;58.45
60240;BME280;46102;39.012;-7.064;2023-02-16T00:33:59;99451.88;;;10.48;58.68
60240;BME280;46102;39.012;-7.064;2023-02-16T00:36:04;99442.03;;;10.47;58.74
60240;BME280;46102;39.012;-7.064;2023-02-16T00:38:05;99443.78;;;10.38;58.91
60240;BME280;46102;39.012;-7.064;2023-02-16T00:40:06;99458.97;;;10.30;59.40
60240;BME280;46102;39.012;-7.064;2023-02-16T00:42:20;99456.50;;;10.29;59.76
60240;BME280;46102;39.012;-7.064;2023-02-16T00:44:36;99458.47;;;10.23;60.12
60240;BME280;46102;39.012;-7.064;2023-02-16T00:46:41;99465.94;;;10.17;60.10
60240;BME280;46102;39.012;-7.064;2023-02-16T00:48:43;99452.75;;;10.19;60.25
60240;BME280;46102;39.012;-7.064;2023-02-16T00:50:44;99446.81;;;10.12;60.27
60240;BME280;46102;39.012;-7.064;2023-02-16T00:52:45;99445.41;;;10.15;60.23
60240;BME280;46102;39.012;-7.064;2023-02-16T00:54:46;99447.63;;;10.13;60.69
60240;BME280;46102;39.012;-7.064;2023-02-16T00:56:47;99447.63;;;10.13;60.74
60240;BME280;46102;39.012;-7.064;2023-02-16T00:58:49;99447.44;;;10.04;60.72
60240;BME280;46102;39.012;-7.064;2023-02-16T01:00:59;99439.53;;;10.03;61.07
60240;BME280;46102;39.012;-7.064;2023-02-16T01:03:06;99433.00;;;9.98;61.03
60240;BME280;46102;39.012;-7.064;2023-02-16T01:05:10;99444.22;;;10.02;60.78
60240;BME280;46102;39.012;-7.064;2023-02-16T01:07:12;99445.03;;;10.03;60.83
60240;BME280;46102;39.012;-7.064;2023-02-16T01:09:32;99439.59;;;9.97;61.20
60240;BME280;46102;39.012;-7.064;2023-02-16T01:11:51;99439.34;;;9.94;61.08
60240;BME280;46102;39.012;-7.064;2023-02-16T01:13:53;99431.88;;;9.99;61.29
60240;BME280;46102;39.012;-7.064;2023-02-16T01:15:54;99438.72;;;10.02;61.08
60240;BME280;46102;39.012;-7.064;2023-02-16T01:17:55;99434.41;;;9.96;61.17
60240;BME280;46102;39.012;-7.064;2023-02-16T01:19:56;99427.22;;;10.00;61.19
60240;BME280;46102;39.012;-7.064;2023-02-16T01:21:57;99433.81;;;9.99;60.97
60240;BME280;46102;39.012;-7.064;2023-02-16T01:24:02;99432.22;;;9.93;61.14
60240;BME280;46102;39.012;-7.064;2023-02-16T01:26:05;99436.09;;;9.92;61.45
60240;BME280;46102;39.012;-7.064;2023-02-16T01:28:19;99438.22;;;9.95;61.02
60240;BME280;46102;39.012;-7.064;2023-02-16T01:30:22;99430.53;;;9.97;61.16
60240;BME280;46102;39.012;-7.064;2023-02-16T01:32:23;99433.00;;;9.98;60.84
60240;BME280;46102;39.012;-7.064;2023-02-16T01:34:24;99438.75;;;9.97;61.45
60240;BME280;46102;39.012;-7.064;2023-02-16T01:36:33;99439.34;;;9.94;60.97
60240;BME280;46102;39.012;-7.064;2023-02-16T01:38:34;99428.38;;;9.94;61.26
60240;BME280;46102;39.012;-7.064;2023-02-16T01:40:39;99431.72;;;9.91;61.38
60240;BME280;46102;39.012;-7.064;2023-02-16T01:42:50;99429.56;;;9.88;61.09
60240;BME280;46102;39.012;-7.064;2023-02-16T01:44:59;99426.25;;;9.91;61.54
60240;BME280;46102;39.012;-7.064;2023-02-16T01:47:18;99434.16;;;9.92;61.62
60240;BME280;46102;39.012;-7.064;2023-02-16T01:49:26;99431.19;;;9.89;61.39
60240;BME280;46102;39.012;-7.064;2023-02-16T01:51:38;99431.72;;;9.91;61.51
60240;BME280;46102;39.012;-7.064;2023-02-16T01:53:46;99424.06;;;9.88;61.23
60240;BME280;46102;39.012;-7.064;2023-02-16T01:55:55;99422.13;;;9.88;61.21
60240;BME280;46102;39.012;-7.064;2023-02-16T02:02:22;99428.09;;;9.95;60.72
60240;BME280;46102;39.012;-7.064;2023-02-16T02:04:30;99423.09;;;10.03;60.76
60240;BME280;46102;39.012;-7.064;2023-02-16T02:06:55;99427.75;;;10.02;60.58
60240;BME280;46102;39.012;-7.064;2023-02-16T02:09:01;99427.69;;;10.07;60.78
60240;BME280;46102;39.012;-7.064;2023-02-16T02:13:19;99421.50;;;9.96;60.84
60240;BME280;46102;39.012;-7.064;2023-02-16T02:15:24;99426.81;;;9.88;61.23
60240;BME280;46102;39.012;-7.064;2023-02-16T02:17:27;99421.56;;;9.91;61.07
60240;BME280;46102;39.012;-7.064;2023-02-16T02:19:31;99417.25;;;9.85;61.10
60240;BME280;46102;39.012;-7.064;2023-02-16T02:21:55;99421.63;;;9.86;61.31
60240;BME280;46102;39.012;-7.064;2023-02-16T02:31:09;99419.28;;;9.74;61.25
60240;BME280;46102;39.012;-7.064;2023-02-16T02:35:46;99425.41;;;9.66;61.95
60240;BME280;46102;39.012;-7.064;2023-02-16T02:37:50;99422.66;;;9.66;61.54
60240;BME280;46102;39.012;-7.064;2023-02-16T02:40:02;99422.66;;;9.66;61.81
60240;BME280;46102;39.012;-7.064;2023-02-16T02:42:12;99426.03;;;9.58;61.86
60240;BME280;46102;39.012;-7.064;2023-02-16T02:44:20;99430.69;;;9.57;62.08
60240;BME280;46102;39.012;-7.064;2023-02-16T02:46:31;99423.88;;;9.55;62.24
60240;BME280;46102;39.012;-7.064;2023-02-16T02:48:34;99428.00;;;9.52;62.33
60240;BME280;46102;39.012;-7.064;2023-02-16T02:50:38;99429.97;;;9.47;62.72
60240;BME280;46102;39.012;-7.064;2023-02-16T02:52:41;99425.94;;;9.39;62.64
60240;BME280;46102;39.012;-7.064;2023-02-16T02:54:43;99419.63;;;9.44;62.96
60240;BME280;46102;39.012;-7.064;2023-02-16T02:57:15;99424.34;;;9.33;63.30
60240;BME280;46102;39.012;-7.064;2023-02-16T02:59:38;99420.28;;;9.30;63.21
60240;BME280;46102;39.012;-7.064;2023-02-16T03:02:00;99422.47;;;9.28;63.24
60240;BME280;46102;39.012;-7.064;2023-02-16T03:04:03;99421.91;;;9.31;62.71
60240;BME280;46102;39.012;-7.064;2023-02-16T03:06:12;99423.28;;;9.29;62.82
60240;BME280;46102;39.012;-7.064;2023-02-16T03:08:16;99427.44;;;9.26;63.22
60240;BME280;46102;39.012;-7.064;2023-02-16T03:10:22;99419.22;;;9.26;62.36
60240;BME280;46102;39.012;-7.064;2023-02-16T03:12:43;99421.47;;;9.19;62.94
60240;BME280;46102;39.012;-7.064;2023-02-16T03:14:47;99417.88;;;9.24;62.54
60240;BME280;46102;39.012;-7.064;2023-02-16T03:17:02;99418.16;;;9.22;62.31
60240;BME280;46102;39.012;-7.064;2023-02-16T03:19:24;99427.72;;;9.25;62.60
60240;BME280;46102;39.012;-7.064;2023-02-16T03:21:43;99420.28;;;9.30;62.42
60240;BME280;46102;39.012;-7.064;2023-02-16T03:24:05;99417.47;;;9.35;62.13
60240;BME280;46102;39.012;-7.064;2023-02-16T03:26:27;99423.78;;;9.36;62.37
60240;BME280;46102;39.012;-7.064;2023-02-16T03:28:48;99419.41;;;9.35;61.62
60240;BME280;46102;39.012;-7.064;2023-02-16T03:31:11;99419.16;;;9.31;61.99
60240;BME280;46102;39.012;-7.064;2023-02-16T03:33:13;99421.09;;;9.31;62.14
60240;BME280;46102;39.012;-7.064;2023-02-16T03:35:14;99414.88;;;9.20;62.75
60240;BME280;46102;39.012;-7.064;2023-02-16T03:37:15;99419.28;;;9.16;62.44
60240;BME280;46102;39.012;-7.064;2023-02-16T03:39:17;99411.59;;;9.23;62.25
60240;BME280;46102;39.012;-7.064;2023-02-16T03:41:18;99409.88;;;9.27;62.12
60240;BME280;46102;39.012;-7.064;2023-02-16T03:43:23;99407.66;;;9.34;61.64
60240;BME280;46102;39.012;-7.064;2023-02-16T03:45:25;99414.28;;;9.28;61.41
60240;BME280;46102;39.012;-7.064;2023-02-16T03:47:27;99412.59;;;9.32;62.16
60240;BME280;46102;39.012;-7.064;2023-02-16T03:49:28;99412.53;;;9.37;61.68
60240;BME280;46102;39.012;-7.064;2023-02-16T03:51:29;99416.69;;;9.35;61.61
60240;BME280;46102;39.012;-7.064;2023-02-16T03:53:29;99412.47;;;9.43;61.56
60240;BME280;46102;39.012;-7.064;2023-02-16T03:55:37;99407.81;;;9.43;61.00
60240;BME280;46102;39.012;-7.064;2023-02-16T03:57:38;99412.69;;;9.51;60.97
60240;BME280;46102;39.012;-7.064;2023-02-16T03:59:39;99419.75;;;9.57;60.81
60240;BME280;46102;39.012;-7.064;2023-02-16T04:01:39;99417.28;;;9.56;60.64
60240;BME280;46102;39.012;-7.064;2023-02-16T04:03:40;99424.78;;;9.45;61.08
60240;BME280;46102;39.012;-7.064;2023-02-16T04:05:41;99425.13;;;9.38;61.39
60240;BME280;46102;39.012;-7.064;2023-02-16T04:07:42;99425.13;;;9.38;61.56
60240;BME280;46102;39.012;-7.064;2023-02-16T04:09:43;99418.00;;;9.37;61.37
60240;BME280;46102;39.012;-7.064;2023-02-16T04:11:44;99415.00;;;9.39;61.30
60240;BME280;46102;39.012;-7.064;2023-02-16T04:14:03;99416.91;;;9.38;60.94
60240;BME280;46102;39.012;-7.064;2023-02-16T04:16:04;99428.16;;;9.37;61.05
60240;BME280;46102;39.012;-7.064;2023-02-16T04:18:05;99423.81;;;9.31;61.79
60240;BME280;46102;39.012;-7.064;2023-02-16T04:20:08;99423.03;;;9.30;61.94
60240;BME280;46102;39.012;-7.064;2023-02-16T04:22:10;99424.75;;;9.21;62.36
60240;BME280;46102;39.012;-7.064;2023-02-16T04:24:11;99412.94;;;9.21;61.93
60240;BME280;46102;39.012;-7.064;2023-02-16T04:26:12;99419.28;;;9.21;61.77
60240;BME280;46102;39.012;-7.064;2023-02-16T04:28:13;99414.06;;;9.20;61.96
60240;BME280;46102;39.012;-7.064;2023-02-16T04:30:16;99411.91;;;9.16;62.26
60240;BME280;46102;39.012;-7.064;2023-02-16T04:32:17;99420.69;;;9.13;62.44
60240;BME280;46102;39.012;-7.064;2023-02-16T04:34:18;99420.41;;;9.15;62.33
60240;BME280;46102;39.012;-7.064;2023-02-16T04:36:19;99411.59;;;9.18;62.65
60240;BME280;46102;39.012;-7.064;2023-02-16T04:38:20;99406.19;;;9.13;62.53
60240;BME280;46102;39.012;-7.064;2023-02-16T04:40:20;99411.13;;;9.11;62.26
60240;BME280;46102;39.012;-7.064;2023-02-16T04:42:21;99420.69;;;9.13;62.09
60240;BME280;46102;39.012;-7.064;2023-02-16T04:44:22;99413.34;;;9.09;62.53
60240;BME280;46102;39.012;-7.064;2023-02-16T04:46:23;99417.72;;;9.10;62.91
60240;BME280;46102;39.012;-7.064;2023-02-16T04:48:24;99418.25;;;9.12;62.64
60240;BME280;46102;39.012;-7.064;2023-02-16T04:50:25;99419.09;;;9.07;62.88
60240;BME280;46102;39.012;-7.064;2023-02-16T04:52:25;99414.72;;;9.06;62.66
60240;BME280;46102;39.012;-7.064;2023-02-16T04:54:26;99415.53;;;9.07;62.48
60240;BME280;46102;39.012;-7.064;2023-02-16T04:56:27;99417.19;;;9.08;62.50
60240;BME280;46102;39.012;-7.064;2023-02-16T04:58:28;99415.78;;;9.10;62.32
60240;BME280;46102;39.012;-7.064;2023-02-16T05:00:28;99413.00;;;9.15;61.83
60240;BME280;46102;39.012;-7.064;2023-02-16T05:02:31;99414.41;;;9.13;62.34
60240;BME280;46102;39.012;-7.064;2023-02-16T05:04:32;99411.06;;;9.16;62.40
60240;BME280;46102;39.012;-7.064;2023-02-16T05:06:33;99414.88;;;9.20;62.43
60240;BME280;46102;39.012;-7.064;2023-02-16T05:08:33;99419.00;;;9.17;62.49
60240;BME280;46102;39.012;-7.064;2023-02-16T05:10:34;99422.53;;;9.23;61.92
60240;BME280;46102;39.012;-7.064;2023-02-16T05:12:35;99420.13;;;9.16;62.43
60240;BME280;46102;39.012;-7.064;2023-02-16T05:14:54;99417.72;;;9.10;62.55
60240;BME280;46102;39.012;-7.064;2023-02-16T05:16:55;99424.81;;;9.11;62.49
60240;BME280;46102;39.012;-7.064;2023-02-16T05:18:56;99419.44;;;9.01;62.65
60240;BME280;46102;39.012;-7.064;2023-02-16T05:20:57;99420.56;;;8.94;62.99
60240;BME280;46102;39.012;-7.064;2023-02-16T05:23:16;99421.69;;;8.88;63.05
60240;BME280;46102;39.012;-7.064;2023-02-16T05:25:17;99419.50;;;8.90;63.37
60240;BME280;46102;39.012;-7.064;2023-02-16T05:27:20;99420.09;;;8.87;63.24
60240;BME280;46102;39.012;-7.064;2023-02-16T05:29:21;99421.44;;;8.90;63.53
60240;BME280;46102;39.012;-7.064;2023-02-16T05:31:25;99423.94;;;8.81;63.13
60240;BME280;46102;39.012;-7.064;2023-02-16T05:33:26;99418.78;;;8.74;63.67
60240;BME280;46102;39.012;-7.064;2023-02-16T05:35:26;99411.34;;;8.80;63.38
60240;BME280;46102;39.012;-7.064;2023-02-16T05:37:27;99415.47;;;8.83;63.22
60240;BME280;46102;39.012;-7.064;2023-02-16T05:39:28;99415.66;;;8.91;63.37
60240;BME280;46102;39.012;-7.064;2023-02-16T05:41:29;99415.66;;;8.91;63.12
60240;BME280;46102;39.012;-7.064;2023-02-16T05:43:30;99421.13;;;8.91;63.69
60240;BME280;46102;39.012;-7.064;2023-02-16T05:45:30;99426.09;;;8.89;63.54
60240;BME280;46102;39.012;-7.064;2023-02-16T05:47:31;99424.69;;;8.92;63.69
60240;BME280;46102;39.012;-7.064;2023-02-16T05:49:32;99424.19;;;8.85;63.54
60240;BME280;46102;39.012;-7.064;2023-02-16T05:51:33;99421.44;;;8.90;63.76
60240;BME280;46102;39.012;-7.064;2023-02-16T05:53:34;99419.78;;;8.89;63.63
60240;BME280;46102;39.012;-7.064;2023-02-16T05:55:35;99423.59;;;8.93;63.51
60240;BME280;46102;39.012;-7.064;2023-02-16T05:57:36;99421.38;;;8.95;63.31
60240;BME280;46102;39.012;-7.064;2023-02-16T05:59:37;99412.41;;;8.84;63.98
60240;BME280;46102;39.012;-7.064;2023-02-16T06:01:38;99421.44;;;8.90;63.48
60240;BME280;46102;39.012;-7.064;2023-02-16T06:03:40;99416.28;;;8.83;63.45
60240;BME280;46102;39.012;-7.064;2023-02-16T06:05:41;99414.59;;;8.87;63.80
60240;BME280;46102;39.012;-7.064;2023-02-16T06:07:41;99417.63;;;8.86;63.32
60240;BME280;46102;39.012;-7.064;2023-02-16T06:09:42;99426.69;;;8.81;64.05
60240;BME280;46102;39.012;-7.064;2023-02-16T06:11:43;99417.63;;;8.86;63.83
60240;BME280;46102;39.012;-7.064;2023-02-16T06:13:44;99421.97;;;8.87;64.05
60240;BME280;46102;39.012;-7.064;2023-02-16T06:15:45;99419.78;;;8.89;63.56
60240;BME280;46102;39.012;-7.064;2023-02-16T06:17:46;99417.66;;;8.81;64.23
60240;BME280;46102;39.012;-7.064;2023-02-16T06:19:47;99428.34;;;8.77;63.69
60240;BME280;46102;39.012;-7.064;2023-02-16T06:21:48;99428.06;;;8.79;64.16
60240;BME280;46102;39.012;-7.064;2023-02-16T06:23:48;99432.69;;;8.83;64.29
60240;BME280;46102;39.012;-7.064;2023-02-16T06:25:50;99434.63;;;8.83;64.22
60240;BME280;46102;39.012;-7.064;2023-02-16T06:27:51;99428.88;;;8.79;63.85
60240;BME280;46102;39.012;-7.064;2023-02-16T06:29:52;99420.31;;;8.91;64.36
60240;BME280;46102;39.012;-7.064;2023-02-16T06:31:52;99425.22;;;8.94;63.55
60240;BME280;46102;39.012;-7.064;2023-02-16T06:33:54;99437.31;;;8.88;63.54
60240;BME280;46102;39.012;-7.064;2023-02-16T06:35:56;99427.13;;;8.93;63.04
60240;BME280;46102;39.012;-7.064;2023-02-16T06:37:57;99439.78;;;8.89;64.03
60240;BME280;46102;39.012;-7.064;2023-02-16T06:39:58;99439.50;;;8.86;64.02
60240;BME280;46102;39.012;-7.064;2023-02-16T06:41:59;99439.56;;;8.81;63.62
60240;BME280;46102;39.012;-7.064;2023-02-16T06:44:02;99444.50;;;8.79;63.92
60240;BME280;46102;39.012;-7.064;2023-02-16T06:46:03;99446.91;;;8.80;64.23
60240;BME280;46102;39.012;-7.064;2023-02-16T06:48:04;99445.56;;;8.78;64.45
60240;BME280;46102;39.012;-7.064;2023-02-16T06:50:07;99447.53;;;8.72;64.40
60240;BME280;46102;39.012;-7.064;2023-02-16T06:52:09;99448.94;;;8.69;64.66
60240;BME280;46102;39.012;-7.064;2023-02-16T06:54:10;99454.19;;;8.61;64.27
60240;BME280;46102;39.012;-7.064;2023-02-16T06:56:11;99453.88;;;8.62;65.50
60240;BME280;46102;39.012;-7.064;2023-02-16T06:58:12;99461.00;;;8.63;65.00
60240;BME280;46102;39.012;-7.064;2023-02-16T07:00:13;99466.69;;;8.67;64.76
60240;BME280;46102;39.012;-7.064;2023-02-16T07:02:14;99465.66;;;8.58;65.24
60240;BME280;46102;39.012;-7.064;2023-02-16T07:04:15;99465.69;;;8.52;65.21
60240;BME280;46102;39.012;-7.064;2023-02-16T07:06:15;99471.19;;;8.47;65.43
60240;BME280;46102;39.012;-7.064;2023-02-16T07:08:16;99474.47;;;8.49;65.14
60240;BME280;46102;39.012;-7.064;2023-02-16T07:10:18;99473.31;;;8.55;65.67
60240;BME280;46102;39.012;-7.064;2023-02-16T07:12:19;99472.25;;;8.57;65.34
60240;BME280;46102;39.012;-7.064;2023-02-16T07:14:20;99485.41;;;8.49;65.18
60240;BME280;46102;39.012;-7.064;2023-02-16T07:16:21;99486.78;;;8.47;65.51
60240;BME280;46102;39.012;-7.064;2023-02-16T07:18:22;99486.78;;;8.37;65.67
60240;BME280;46102;39.012;-7.064;2023-02-16T07:20:23;99483.78;;;8.38;65.99
60240;BME280;46102;39.012;-7.064;2023-02-16T07:22:23;99485.41;;;8.39;65.77
60240;BME280;46102;39.012;-7.064;2023-02-16T07:24:24;99492.00;;;8.38;65.99
60240;BME280;46102;39.012;-7.064;2023-02-16T07:26:25;99493.38;;;8.36;66.59
60240;BME280;46102;39.012;-7.064;2023-02-16T07:28:26;99498.53;;;8.37;65.99
60240;BME280;46102;39.012;-7.064;2023-02-16T07:30:27;99497.72;;;8.37;65.89
60240;BME280;46102;39.012;-7.064;2023-02-16T07:32:28;99498.28;;;8.39;66.06
60240;BME280;46102;39.012;-7.064;2023-02-16T07:34:30;99500.19;;;8.38;65.91
60240;BME280;46102;39.012;-7.064;2023-02-16T07:36:30;99507.28;;;8.39;65.81
60240;BME280;46102;39.012;-7.064;2023-02-16T07:38:31;99506.78;;;8.42;65.92
60240;BME280;46102;39.012;-7.064;2023-02-16T07:40:32;99510.84;;;8.50;65.71
60240;BME280;46102;39.012;-7.064;2023-02-16T07:42:33;99513.56;;;8.50;65.99
60240;BME280;46102;39.012;-7.064;2023-02-16T07:44:36;99521.47;;;8.57;65.86
60240;BME280;46102;39.012;-7.064;2023-02-16T07:46:37;99522.53;;;8.66;66.11
60240;BME280;46102;39.012;-7.064;2023-02-16T07:48:38;99519.75;;;8.76;65.57
60240;BME280;46102;39.012;-7.064;2023-02-16T07:50:39;99525.09;;;8.96;64.39
60240;BME280;46102;39.012;-7.064;2023-02-16T07:52:39;99523.91;;;9.13;63.86
60240;BME280;46102;39.012;-7.064;2023-02-16T07:54:40;99530.31;;;9.37;63.50
60240;BME280;46102;39.012;-7.064;2023-02-16T07:56:41;99524.06;;;9.61;62.45
60240;BME280;46102;39.012;-7.064;2023-02-16T07:58:42;99526.72;;;9.71;62.08
60240;BME280;46102;39.012;-7.064;2023-02-16T08:00:42;99523.88;;;9.82;61.62
60240;BME280;46102;39.012;-7.064;2023-02-16T08:02:43;99527.06;;;9.94;61.29
60240;BME280;46102;39.012;-7.064;2023-02-16T08:04:45;99529.66;;;10.09;60.97
60240;BME280;46102;39.012;-7.064;2023-02-16T08:06:46;99530.81;;;10.32;59.87
60240;BME280;46102;39.012;-7.064;2023-02-16T08:08:48;99535.34;;;10.42;59.09
60240;BME280;46102;39.012;-7.064;2023-02-16T08:10:49;99529.22;;;10.50;59.08
60240;BME280;46102;39.012;-7.064;2023-02-16T08:12:49;99541.31;;;10.49;59.18
60240;BME280;46102;39.012;-7.064;2023-02-16T08:14:50;99541.47;;;10.58;58.77
60240;BME280;46102;39.012;-7.064;2023-02-16T08:16:51;99543.94;;;10.59;58.78
60240;BME280;46102;39.012;-7.064;2023-02-16T08:18:58;99550.19;;;10.65;58.46
60240;BME280;46102;39.012;-7.064;2023-02-16T08:21:06;99552.03;;;10.70;58.41
60240;BME280;46102;39.012;-7.064;2023-02-16T08:23:13;99554.06;;;10.83;58.12
60240;BME280;46102;39.012;-7.064;2023-02-16T08:25:14;99553.13;;;10.93;57.34
60240;BME280;46102;39.012;-7.064;2023-02-16T08:27:15;99553.31;;;10.96;57.44
60240;BME280;46102;39.012;-7.064;2023-02-16T08:29:16;99566.94;;;11.07;57.02
60240;BME280;46102;39.012;-7.064;2023-02-16T08:31:22;99565.22;;;11.11;57.08
60240;BME280;46102;39.012;-7.064;2023-02-16T08:33:24;99567.22;;;11.24;56.84
60240;BME280;46102;39.012;-7.064;2023-02-16T08:35:25;99568.03;;;11.43;55.93
60240;BME280;46102;39.012;-7.064;2023-02-16T08:37:26;99574.78;;;11.51;55.94
60240;BME280;46102;39.012;-7.064;2023-02-16T08:39:29;99564.84;;;11.55;56.02
60240;BME280;46102;39.012;-7.064;2023-02-16T08:41:32;99566.91;;;11.63;55.75
60240;BME280;46102;39.012;-7.064;2023-02-16T08:43:34;99566.34;;;11.80;55.11
60240;BME280;46102;39.012;-7.064;2023-02-16T08:45:35;99572.00;;;11.89;55.06
60240;BME280;46102;39.012;-7.064;2023-02-16T08:47:36;99569.06;;;11.99;55.05
60240;BME280;46102;39.012;-7.064;2023-02-16T08:49:36;99573.19;;;12.16;54.53
60240;BME280;46102;39.012;-7.064;2023-02-16T08:51:45;99581.16;;;12.31;54.36
60240;BME280;46102;39.012;-7.064;2023-02-16T08:53:46;99584.13;;;12.48;53.46
60240;BME280;46102;39.012;-7.064;2023-02-16T08:55:52;99584.03;;;12.54;53.35
60240;BME280;46102;39.012;-7.064;2023-02-16T08:57:53;99589.44;;;12.73;53.05
60240;BME280;46102;39.012;-7.064;2023-02-16T08:59:54;99588.94;;;12.84;52.67
60240;BME280;46102;39.012;-7.064;2023-02-16T09:02:14;99587.72;;;12.90;52.84
60240;BME280;46102;39.012;-7.064;2023-02-16T09:04:18;99587.69;;;13.04;52.33
60240;BME280;46102;39.012;-7.064;2023-02-16T09:06:21;99590.28;;;13.23;52.26
60240;BME280;46102;39.012;-7.064;2023-02-16T09:08:22;99579.16;;;13.42;51.75
60240;BME280;46102;39.012;-7.064;2023-02-16T09:10:22;99573.34;;;13.66;50.80
60240;BME280;46102;39.012;-7.064;2023-02-16T09:12:24;99579.13;;;13.79;51.01
60240;BME280;46102;39.012;-7.064;2023-02-16T09:14:25;99585.66;;;13.91;50.20
60240;BME280;46102;39.012;-7.064;2023-02-16T09:16:26;99582.66;;;14.02;50.19
60240;BME280;46102;39.012;-7.064;2023-02-16T09:18:33;99588.75;;;14.12;50.04
60240;BME280;46102;39.012;-7.064;2023-02-16T09:20:36;99598.44;;;14.32;49.89
60240;BME280;46102;39.012;-7.064;2023-02-16T09:22:38;99596.66;;;14.59;49.25
60240;BME280;46102;39.012;-7.064;2023-02-16T09:24:39;99600.09;;;14.73;49.03
60240;BME280;46102;39.012;-7.064;2023-02-16T09:26:40;99605.00;;;14.85;48.90
60240;BME280;46102;39.012;-7.064;2023-02-16T09:28:42;99595.31;;;15.05;48.39
60240;BME280;46102;39.012;-7.064;2023-02-16T09:30:44;99599.59;;;15.20;47.96
60240;BME280;46102;39.012;-7.064;2023-02-16T09:32:45;99594.41;;;15.45;47.73
60240;BME280;46102;39.012;-7.064;2023-02-16T09:34:46;99594.88;;;15.55;46.91
60240;BME280;46102;39.012;-7.064;2023-02-16T09:36:50;99596.19;;;15.67;46.94
60240;BME280;46102;39.012;-7.064;2023-02-16T09:38:51;99600.13;;;15.83;46.12
60240;BME280;46102;39.012;-7.064;2023-02-16T09:40:55;99593.75;;;15.91;46.00
60240;BME280;46102;39.012;-7.064;2023-02-16T09:43:25;99593.59;;;15.96;45.94
60240;BME280;46102;39.012;-7.064;2023-02-16T09:45:31;99596.03;;;15.98;45.55
60240;BME280;46102;39.012;-7.064;2023-02-16T09:47:40;99600.09;;;16.00;44.60
60240;BME280;46102;39.012;-7.064;2023-02-16T09:49:42;99593.91;;;16.03;44.27
60240;BME280;46102;39.012;-7.064;2023-02-16T09:51:44;99596.69;;;16.03;44.55
60240;BME280;46102;39.012;-7.064;2023-02-16T09:53:46;99601.72;;;16.10;44.25
60240;BME280;46102;39.012;-7.064;2023-02-16T09:58:21;99602.16;;;16.21;44.32
60240;BME280;46102;39.012;-7.064;2023-02-16T10:05:13;99609.16;;;16.27;44.11
60240;BME280;46102;39.012;-7.064;2023-02-16T10:07:31;99611.91;;;16.36;44.00
60240;BME280;46102;39.012;-7.064;2023-02-16T10:09:36;99608.78;;;16.46;44.07
60240;BME280;46102;39.012;-7.064;2023-02-16T10:11:45;99601.53;;;16.71;43.68
60240;BME280;46102;39.012;-7.064;2023-02-16T10:13:52;99608.81;;;16.76;43.02
60240;BME280;46102;39.012;-7.064;2023-02-16T10:15:58;99623.09;;;16.95;43.06
60240;BME280;46102;39.012;-7.064;2023-02-16T10:18:15;99619.09;;;16.75;42.92
60240;BME280;46102;39.012;-7.064;2023-02-16T10:20:22;99623.16;;;16.87;43.34
60240;BME280;46102;39.012;-7.064;2023-02-16T10:22:34;99625.06;;;16.95;43.19
60240;BME280;46102;39.012;-7.064;2023-02-16T10:24:47;99627.03;;;16.94;42.80
60240;BME280;46102;39.012;-7.064;2023-02-16T10:27:02;99623.28;;;17.20;42.90
60240;BME280;46102;39.012;-7.064;2023-02-16T10:29:13;99624.34;;;17.57;41.98
60240;BME280;46102;39.012;-7.064;2023-02-16T10:31:33;99619.31;;;17.72;41.42
60240;BME280;46102;39.012;-7.064;2023-02-16T10:35:57;99616.56;;;17.72;41.47
60240;BME280;46102;39.012;-7.064;2023-02-16T10:38:13;99619.97;;;17.56;41.22
60240;BME280;46102;39.012;-7.064;2023-02-16T10:40:27;99627.53;;;17.68;41.54
60240;BME280;46102;39.012;-7.064;2023-02-16T10:42:37;99624.63;;;18.06;41.37
60240;BME280;46102;39.012;-7.064;2023-02-16T10:44:47;99625.16;;;18.33;40.72
60240;BME280;46102;39.012;-7.064;2023-02-16T10:46:55;99621.41;;;18.62;40.25
60240;BME280;46102;39.012;-7.064;2023-02-16T10:48:59;99619.81;;;18.86;39.43
60240;BME280;46102;39.012;-7.064;2023-02-16T10:51:09;99625.97;;;19.04;39.01
60240;BME280;46102;39.012;-7.064;2023-02-16T10:53:18;99625.72;;;19.09;39.03
60240;BME280;46102;39.012;-7.064;2023-02-16T10:55:20;99618.78;;;19.27;38.91
60240;BME280;46102;39.012;-7.064;2023-02-16T10:57:26;99626.28;;;19.27;38.18
60240;BME280;46102;39.012;-7.064;2023-02-16T10:59:38;99619.81;;;19.35;37.94
60240;BME280;46102;39.012;-7.064;2023-02-16T11:01:43;99625.25;;;19.44;37.90
60240;BME280;46102;39.012;-7.064;2023-02-16T11:03:48;99623.84;;;19.38;37.89
60240;BME280;46102;39.012;-7.064;2023-02-16T11:05:49;99627.47;;;19.26;38.22
60240;BME280;46102;39.012;-7.064;2023-02-16T11:07:52;99620.81;;;19.43;38.09
60240;BME280;46102;39.012;-7.064;2023-02-16T11:09:59;99626.25;;;19.64;37.75
60240;BME280;46102;39.012;-7.064;2023-02-16T11:12:15;99625.41;;;19.75;37.82
60240;BME280;46102;39.012;-7.064;2023-02-16T11:14:23;99619.94;;;19.79;36.87
60240;BME280;46102;39.012;-7.064;2023-02-16T11:16:24;99616.91;;;19.84;37.14
60240;BME280;46102;39.012;-7.064;2023-02-16T11:18:28;99624.31;;;20.21;36.99
60240;BME280;46102;39.012;-7.064;2023-02-16T11:20:32;99623.38;;;20.45;36.38